»·PEaware :: N1MC KSNA-KTOA

N1MC :: KSNA-KTOA

FLIGHT INFORMATION

Flight Status: Arrived
Operator: Privately registered:
United States
More flights under this callsign
Pilot: Scott K. (2517)
Aircraft: Unknown
(B35)
More flights by this aircraft type
Origin: KSNA John Wayne-Orange Co
United States
Destination: KTOA Zamperini
United States
More flights between these airports :: More routes between these airports
Route: +DRIFY SPECIAL FLIGHT RULES TRANS SILEX COASTAL RTE ZILBA
File this flight plan on PilotEdge
Remarks: VR3 Test
Altitude:
(Current/Filed)
4,500ft
Speed:
(Current/Filed)
160kts
Departed: 03-May-14 02:11 PM
Arrived: 03-May-14 03:18 PM
Distance/Time
Traveled:
24nm/1:07
Distance/Time
To Go:
Arrived

Flight Plot

Page will automatically refresh every two minutes.

Flight plan parsing failed; only flown route is shown


Map Options




Map Legend


Flown Route
Filed Route
Departure Airport
Arrival Airport
Navaid (VOR, NDB)
Fix

Horizontal Profiles

Position Reports

Time Latitude Longitude Heading Altitude Ground
Speed
03-May-14 13:38 33.675412 -117.872549 40 49ft 0kts
03-May-14 13:39 33.675412 -117.872549 40 49ft 0kts
03-May-14 13:40 33.675412 -117.872549 40 49ft 0kts
03-May-14 13:41 33.675412 -117.872549 40 49ft 0kts
03-May-14 13:42 33.675412 -117.872549 40 49ft 0kts
03-May-14 13:43 33.675412 -117.872549 40 49ft 0kts
03-May-14 13:44 33.675412 -117.872549 40 49ft 0kts
03-May-14 13:45 33.675412 -117.872549 40 49ft 0kts
03-May-14 13:46 33.675412 -117.872549 40 49ft 0kts
03-May-14 13:47 33.675940 -117.870618 60 49ft 13kts
03-May-14 13:48 33.679234 -117.868152 19 44ft 26kts
03-May-14 13:49 33.681027 -117.866492 121 40ft 0kts
03-May-14 13:50 33.681023 -117.866484 123 40ft 1kts
03-May-14 13:51 33.674263 -117.869507 220 49ft 20kts
03-May-14 13:58 33.673618 -117.865546 119 46ft 0kts
03-May-14 13:59 33.673618 -117.865546 119 46ft 0kts
03-May-14 14:00 33.673618 -117.865546 119 46ft 0kts
03-May-14 14:01 33.673618 -117.865546 119 46ft 0kts
03-May-14 14:02 33.673618 -117.865546 119 46ft 0kts
03-May-14 14:03 33.673615 -117.865540 119 46ft 1kts
03-May-14 14:04 33.673666 -117.867346 311 47ft 5kts
03-May-14 14:05 33.675160 -117.866442 31 46ft 0kts
03-May-14 14:06 33.678306 -117.864457 29 42ft 21kts
03-May-14 14:07 33.679838 -117.863732 290 39ft 0kts
03-May-14 14:08 33.679468 -117.864617 208 40ft 30kts
03-May-14 14:09 33.665334 -117.875216 223 712ft 86kts
03-May-14 14:10 33.653094 -117.893048 228 1595ft 96kts
03-May-14 14:11 33.635999 -117.917616 228 2046ft 142kts
03-May-14 14:12 33.605729 -117.955182 225 2032ft 170kts
03-May-14 14:13 33.612427 -118.005865 297 2934ft 136kts
03-May-14 14:14 33.630345 -118.035679 299 4412ft 96kts
03-May-14 14:15 33.653641 -118.070720 305 4449ft 166kts
03-May-14 14:16 33.682210 -118.115578 303 4473ft 178kts
03-May-14 14:17 33.709205 -118.157252 304 4468ft 176kts
03-May-14 14:18 33.727478 -118.184868 303 4471ft 160kts
03-May-14 14:19 33.742487 -118.208411 304 4474ft 156kts
03-May-14 14:20 33.759697 -118.232324 311 4476ft 156kts
03-May-14 14:21 33.775872 -118.253436 307 4479ft 160kts
03-May-14 14:22 33.792601 -118.276920 307 4478ft 166kts
03-May-14 14:23 33.810489 -118.301427 316 4466ft 169kts
03-May-14 14:24 33.833417 -118.317208 326 4474ft 171kts
03-May-14 14:25 33.856033 -118.334412 324 4424ft 132kts
03-May-14 14:26 33.871975 -118.347785 320 4418ft 107kts
03-May-14 14:27 33.886762 -118.359990 321 4505ft 113kts
03-May-14 14:28 33.903089 -118.372760 323 4498ft 120kts
03-May-14 14:29 33.922291 -118.387542 322 4497ft 119kts
03-May-14 14:30 33.940854 -118.402471 321 4498ft 119kts
03-May-14 14:31 33.958859 -118.417027 322 4500ft 120kts
03-May-14 14:32 33.979123 -118.432944 326 4497ft 144kts
03-May-14 14:33 34.004063 -118.451967 324 4507ft 173kts
03-May-14 14:34 34.030369 -118.472466 324 4503ft 183kts
03-May-14 14:35 34.063297 -118.497958 324 4504ft 186kts
03-May-14 14:36 34.093927 -118.522042 319 4507ft 189kts
03-May-14 14:37 34.110780 -118.567160 287 4508ft 183kts
03-May-14 14:38 34.130662 -118.604037 322 4517ft 187kts
03-May-14 14:39 34.158653 -118.628505 321 4510ft 186kts
03-May-14 14:40 34.189327 -118.655491 321 4499ft 187kts
03-May-14 14:41 34.218665 -118.679196 337 4876ft 121kts
03-May-14 14:42 34.235429 -118.666068 104 5503ft 133kts
03-May-14 14:43 34.220206 -118.642447 136 5547ft 161kts
03-May-14 14:44 34.199463 -118.617343 141 5595ft 172kts
03-May-14 14:45 34.175437 -118.624191 270 5492ft 184kts
03-May-14 14:46 34.203663 -118.638623 32 5480ft 195kts
03-May-14 14:47 34.204547 -118.607391 135 5585ft 178kts
03-May-14 14:48 34.179310 -118.585973 150 5484ft 143kts
03-May-14 14:49 34.156744 -118.569210 154 5483ft 101kts
03-May-14 14:50 34.136750 -118.556537 157 5566ft 75kts
03-May-14 14:51 34.112197 -118.542435 158 5616ft 147kts
03-May-14 14:52 34.080930 -118.525760 158 5531ft 177kts
03-May-14 14:53 34.054306 -118.509631 147 5544ft 181kts
03-May-14 14:54 34.032708 -118.491309 147 5538ft 184kts
03-May-14 14:55 34.005203 -118.473012 160 5537ft 183kts
03-May-14 14:56 33.972664 -118.455130 156 5535ft 184kts
03-May-14 14:57 33.938483 -118.435715 154 5536ft 185kts
03-May-14 14:58 33.914735 -118.416928 146 5535ft 187kts
03-May-14 14:59 33.889439 -118.394631 147 5534ft 189kts
03-May-14 15:00 33.862945 -118.372286 147 5533ft 185kts
03-May-14 15:01 33.841743 -118.355213 149 4932ft 134kts
03-May-14 15:02 33.824069 -118.338640 144 4123ft 139kts
03-May-14 15:03 33.803038 -118.318465 143 3432ft 132kts
03-May-14 15:04 33.779696 -118.299921 155 3276ft 122kts
03-May-14 15:05 33.753501 -118.276606 147 2855ft 135kts
03-May-14 15:06 33.731941 -118.240633 107 2634ft 128kts
03-May-14 15:07 33.742080 -118.218991 357 2521ft 108kts
03-May-14 15:08 33.752162 -118.231933 287 2576ft 84kts
03-May-14 15:09 33.756914 -118.247536 285 2440ft 72kts
03-May-14 15:10 33.761735 -118.263433 286 2256ft 76kts
03-May-14 15:11 33.768371 -118.279933 295 1886ft 77kts
03-May-14 15:12 33.775626 -118.294760 300 1467ft 69kts
03-May-14 15:13 33.782952 -118.307237 302 1111ft 63kts
03-May-14 15:14 33.791056 -118.319853 303 753ft 65kts
03-May-14 15:15 33.799876 -118.333255 303 127ft 55kts
03-May-14 15:16 33.800707 -118.335978 148 97ft 0kts
03-May-14 15:17 33.800707 -118.335978 148 97ft 0kts
03-May-14 15:18 33.800157 -118.335654 178 98ft 16kts
03-May-14 15:19 33.797791 -118.335590 174 108ft 0kts

Navigation Log

Ident Type
Flight plan parsing failed, navigation log unavailable